createdAt,value
2016-12-27T00:00:11.263Z,1025.71
2016-12-27T00:00:51.823Z,1025.76
2016-12-27T00:01:32.410Z,1025.74
2016-12-27T00:02:12.979Z,1025.73
2016-12-27T00:02:53.556Z,1025.72
2016-12-27T00:03:34.128Z,1025.72
2016-12-27T00:04:14.703Z,1025.73
2016-12-27T00:04:55.275Z,1025.66
2016-12-27T00:05:35.845Z,1025.71
2016-12-27T00:06:16.423Z,1025.68
2016-12-27T00:06:56.995Z,1025.63
2016-12-27T00:07:37.572Z,1025.64
2016-12-27T00:08:18.149Z,1025.67
2016-12-27T00:08:58.725Z,1025.62
2016-12-27T00:09:39.298Z,1025.66
2016-12-27T00:10:19.874Z,1025.64
2016-12-27T00:11:00.460Z,1025.71
2016-12-27T00:11:41.027Z,1025.77
2016-12-27T00:12:21.593Z,1025.83
2016-12-27T00:13:02.157Z,1025.85
2016-12-27T00:13:42.735Z,1025.81
2016-12-27T00:14:23.306Z,1025.81
2016-12-27T00:15:03.883Z,1025.86
2016-12-27T00:15:44.447Z,1025.91
2016-12-27T00:16:25.024Z,1025.91
2016-12-27T00:17:05.602Z,1025.88
2016-12-27T00:17:46.186Z,1025.89
2016-12-27T00:18:26.768Z,1025.89
2016-12-27T00:19:07.337Z,1025.87
2016-12-27T00:19:47.907Z,1025.89
2016-12-27T00:20:28.482Z,1025.9
2016-12-27T00:21:09.056Z,1025.89
2016-12-27T00:21:49.628Z,1025.81
2016-12-27T00:22:30.201Z,1025.81
2016-12-27T00:23:10.783Z,1025.78
2016-12-27T00:23:51.357Z,1025.8
2016-12-27T00:24:31.943Z,1025.79
2016-12-27T00:25:12.509Z,1025.83
2016-12-27T00:25:53.082Z,1025.86
2016-12-27T00:26:33.691Z,1025.9
2016-12-27T00:27:14.275Z,1025.89
2016-12-27T00:27:54.842Z,1025.85
2016-12-27T00:28:35.429Z,1025.86
2016-12-27T00:29:16.002Z,1025.89
2016-12-27T00:29:56.583Z,1025.93
2016-12-27T00:30:37.157Z,1025.9
2016-12-27T00:31:17.745Z,1025.94
2016-12-27T00:31:58.311Z,1025.88
2016-12-27T00:32:38.888Z,1025.92
2016-12-27T00:33:19.458Z,1025.93
2016-12-27T00:34:00.039Z,1026
2016-12-27T00:34:40.610Z,1025.97
2016-12-27T00:35:21.186Z,1025.98
2016-12-27T00:36:01.763Z,1026.02
2016-12-27T00:36:42.337Z,1026
2016-12-27T00:37:22.926Z,1026
2016-12-27T00:38:03.501Z,1026.01
2016-12-27T00:38:44.080Z,1026.04
2016-12-27T00:39:24.658Z,1026.01
2016-12-27T00:40:05.216Z,1026.07
2016-12-27T00:40:45.791Z,1026.05
2016-12-27T00:41:26.368Z,1026.02
2016-12-27T00:42:06.957Z,1026.07
2016-12-27T00:42:47.539Z,1026.08
2016-12-27T00:43:28.111Z,1026.03
2016-12-27T00:44:08.677Z,1026.08
2016-12-27T00:44:49.257Z,1026.14
2016-12-27T00:45:29.830Z,1026.12
2016-12-27T00:46:10.403Z,1026.11
2016-12-27T00:46:50.980Z,1026.08
2016-12-27T00:47:31.556Z,1026.14
2016-12-27T00:48:12.128Z,1026.04
2016-12-27T00:48:52.715Z,1026.08
2016-12-27T00:49:33.301Z,1026.12
2016-12-27T00:50:13.881Z,1026.05
2016-12-27T00:50:54.446Z,1026.13
2016-12-27T00:51:35.021Z,1026.13
2016-12-27T00:52:15.597Z,1026.08
2016-12-27T00:52:56.164Z,1026.1
2016-12-27T00:53:36.735Z,1026.18
2016-12-27T00:54:17.313Z,1026.15
2016-12-27T00:54:57.900Z,1026.11
2016-12-27T00:55:38.481Z,1026.13
2016-12-27T00:56:19.064Z,1026.14
2016-12-27T00:56:59.631Z,1026.18
2016-12-27T00:57:40.204Z,1026.21
2016-12-27T00:58:20.773Z,1026.22
2016-12-27T00:59:01.334Z,1026.25
2016-12-27T00:59:41.911Z,1026.25
2016-12-27T01:00:22.496Z,1026.28
2016-12-27T01:01:03.083Z,1026.31
2016-12-27T01:01:43.650Z,1026.29
2016-12-27T01:02:24.215Z,1026.31
2016-12-27T01:03:04.805Z,1026.31
2016-12-27T01:03:45.376Z,1026.29
2016-12-27T01:04:25.953Z,1026.34
2016-12-27T01:05:06.525Z,1026.32
2016-12-27T01:05:47.118Z,1026.35
2016-12-27T01:06:27.786Z,1026.4
2016-12-27T01:07:08.363Z,1026.42
2016-12-27T01:07:48.945Z,1026.38
2016-12-27T01:08:29.527Z,1026.36
2016-12-27T01:09:10.098Z,1026.34
2016-12-27T01:09:50.732Z,1026.36
2016-12-27T01:10:31.285Z,1026.34
2016-12-27T01:11:11.856Z,1026.42
2016-12-27T01:11:52.420Z,1026.43
2016-12-27T01:12:32.998Z,1026.41
2016-12-27T01:13:13.571Z,1026.52
2016-12-27T01:13:54.159Z,1026.53
2016-12-27T01:14:34.733Z,1026.47
2016-12-27T01:15:15.302Z,1026.5
2016-12-27T01:15:55.890Z,1026.53
2016-12-27T01:16:36.464Z,1026.56
2016-12-27T01:17:17.028Z,1026.51
2016-12-27T01:17:57.630Z,1026.49
2016-12-27T01:18:38.189Z,1026.47
2016-12-27T01:19:18.740Z,1026.55
2016-12-27T01:19:59.326Z,1026.55
2016-12-27T01:20:39.904Z,1026.59
2016-12-27T01:21:20.477Z,1026.55
2016-12-27T01:22:01.066Z,1026.56
2016-12-27T01:22:41.646Z,1026.56
2016-12-27T01:23:22.226Z,1026.57
2016-12-27T01:24:02.800Z,1026.6
2016-12-27T01:24:43.381Z,1026.59
2016-12-27T01:25:23.958Z,1026.57
2016-12-27T01:26:04.524Z,1026.65
2016-12-27T01:26:45.095Z,1026.65
2016-12-27T01:27:25.659Z,1026.67
2016-12-27T01:28:06.242Z,1026.66
2016-12-27T01:28:46.822Z,1026.66
2016-12-27T01:29:27.398Z,1026.68
2016-12-27T01:30:07.962Z,1026.71
2016-12-27T01:30:48.539Z,1026.74
2016-12-27T01:31:29.121Z,1026.72
2016-12-27T01:32:09.700Z,1026.73
2016-12-27T01:32:50.259Z,1026.75
2016-12-27T01:33:30.833Z,1026.75
2016-12-27T01:34:11.411Z,1026.72
2016-12-27T01:34:51.991Z,1026.74
2016-12-27T01:35:32.560Z,1026.72
2016-12-27T01:36:13.135Z,1026.73
2016-12-27T01:36:53.727Z,1026.78
2016-12-27T01:37:34.302Z,1026.76
2016-12-27T01:38:14.869Z,1026.74
2016-12-27T01:38:55.434Z,1026.76
2016-12-27T01:39:36.007Z,1026.8
2016-12-27T01:40:16.579Z,1026.79
2016-12-27T01:40:57.152Z,1026.8
2016-12-27T01:41:37.706Z,1026.84
2016-12-27T01:42:18.288Z,1026.82
2016-12-27T01:42:58.862Z,1026.84
2016-12-27T01:43:39.436Z,1026.9
2016-12-27T01:44:20.007Z,1026.83
2016-12-27T01:45:00.576Z,1026.9
2016-12-27T01:45:41.145Z,1026.9
2016-12-27T01:46:21.718Z,1026.89
2016-12-27T01:47:02.290Z,1026.89
2016-12-27T01:47:42.864Z,1026.91
2016-12-27T01:48:23.438Z,1026.94
2016-12-27T01:49:04.019Z,1026.97
2016-12-27T01:49:44.596Z,1027
2016-12-27T01:50:25.181Z,1026.92
2016-12-27T01:51:05.749Z,1026.94
2016-12-27T01:51:46.328Z,1026.96
2016-12-27T01:52:26.911Z,1026.95
2016-12-27T01:53:07.486Z,1026.96
2016-12-27T01:53:48.069Z,1026.91
2016-12-27T01:54:28.646Z,1026.94
2016-12-27T01:55:09.219Z,1026.94
2016-12-27T01:55:49.794Z,1027.01
2016-12-27T01:56:30.362Z,1027.02
2016-12-27T01:57:10.932Z,1027.09
2016-12-27T01:57:51.509Z,1027.16
2016-12-27T01:58:32.094Z,1027.13
2016-12-27T01:59:12.667Z,1027.1
2016-12-27T01:59:53.237Z,1027.19
2016-12-27T02:00:33.822Z,1027.21
2016-12-27T02:01:14.378Z,1027.18
2016-12-27T02:01:54.955Z,1027.16
2016-12-27T02:02:35.532Z,1027.19
2016-12-27T02:03:16.121Z,1027.15
2016-12-27T02:03:56.692Z,1027.1
2016-12-27T02:04:37.275Z,1027.04
2016-12-27T02:05:17.847Z,1027.06
2016-12-27T02:05:58.420Z,1027.06
2016-12-27T02:06:39.008Z,1027.04
2016-12-27T02:07:19.586Z,1027.02
2016-12-27T02:08:00.159Z,1027.02
2016-12-27T02:08:40.734Z,1027.03
2016-12-27T02:09:21.304Z,1027.03
2016-12-27T02:10:01.869Z,1027.01
2016-12-27T02:10:42.453Z,1027.03
2016-12-27T02:11:23.029Z,1027.05
2016-12-27T02:12:03.603Z,1027.06
2016-12-27T02:12:44.169Z,1027.05
2016-12-27T02:13:24.747Z,1027.05
2016-12-27T02:14:05.329Z,1027
2016-12-27T02:14:45.888Z,1027.01
2016-12-27T02:15:26.471Z,1027.06
2016-12-27T02:16:07.042Z,1027.06
2016-12-27T02:16:47.615Z,1026.99
2016-12-27T02:17:28.188Z,1027.04
2016-12-27T02:18:08.763Z,1027.03
2016-12-27T02:18:49.331Z,1027.05
2016-12-27T02:19:29.903Z,1027.09
2016-12-27T02:20:10.467Z,1027.07
2016-12-27T02:20:51.080Z,1027.05
2016-12-27T02:21:31.647Z,1027.13
2016-12-27T02:22:12.222Z,1027.14
2016-12-27T02:22:52.801Z,1027.15
2016-12-27T02:23:33.373Z,1027.13
2016-12-27T02:24:13.947Z,1027.18
2016-12-27T02:24:54.529Z,1027.19
2016-12-27T02:25:35.113Z,1027.18
2016-12-27T02:26:15.688Z,1027.24
2016-12-27T02:26:56.264Z,1027.26
2016-12-27T02:27:36.844Z,1027.26
2016-12-27T02:28:17.419Z,1027.23
2016-12-27T02:28:57.989Z,1027.26
2016-12-27T02:29:38.556Z,1027.22
2016-12-27T02:30:19.132Z,1027.22
2016-12-27T02:30:59.712Z,1027.22
2016-12-27T02:31:40.286Z,1027.21
2016-12-27T02:32:20.863Z,1027.18
2016-12-27T02:33:01.439Z,1027.23
2016-12-27T02:33:42.014Z,1027.24
2016-12-27T02:34:22.592Z,1027.23
2016-12-27T02:35:03.168Z,1027.28
2016-12-27T02:35:43.737Z,1027.25
2016-12-27T02:36:24.295Z,1027.31
2016-12-27T02:37:04.873Z,1027.29
2016-12-27T02:37:45.450Z,1027.31
2016-12-27T02:38:26.031Z,1027.27
2016-12-27T02:39:06.614Z,1027.28
2016-12-27T02:39:47.196Z,1027.28
2016-12-27T02:40:27.773Z,1027.22
2016-12-27T02:41:08.350Z,1027.22
2016-12-27T02:41:48.929Z,1027.2
2016-12-27T02:42:29.501Z,1027.16
2016-12-27T02:43:10.069Z,1027.19
2016-12-27T02:43:50.629Z,1027.25
2016-12-27T02:44:31.206Z,1027.24
2016-12-27T02:45:11.781Z,1027.21
2016-12-27T02:45:52.358Z,1027.16
2016-12-27T02:46:32.932Z,1027.14
2016-12-27T02:47:13.499Z,1027.17
2016-12-27T02:47:54.072Z,1027.15
2016-12-27T02:48:34.647Z,1027.17
2016-12-27T02:49:15.234Z,1027.24
2016-12-27T02:49:55.802Z,1027.18
2016-12-27T02:50:36.378Z,1027.18
2016-12-27T02:51:16.947Z,1027.2
2016-12-27T02:51:57.526Z,1027.23
2016-12-27T02:52:38.098Z,1027.24
2016-12-27T02:53:18.679Z,1027.24
2016-12-27T02:53:59.258Z,1027.28
2016-12-27T02:54:39.823Z,1027.27
2016-12-27T02:55:20.395Z,1027.3
2016-12-27T02:56:00.960Z,1027.36
2016-12-27T02:56:41.534Z,1027.39
2016-12-27T02:57:22.112Z,1027.34
2016-12-27T02:58:02.684Z,1027.38
2016-12-27T02:58:43.259Z,1027.31
2016-12-27T02:59:23.828Z,1027.3
2016-12-27T03:00:04.392Z,1027.37
2016-12-27T03:00:44.964Z,1027.29
2016-12-27T03:01:25.538Z,1027.26
2016-12-27T03:02:06.116Z,1027.29
2016-12-27T03:02:46.692Z,1027.22
2016-12-27T03:03:27.261Z,1027.3
2016-12-27T03:04:07.833Z,1027.23
2016-12-27T03:04:48.416Z,1027.27
2016-12-27T03:05:28.986Z,1027.23
2016-12-27T03:06:09.561Z,1027.25
2016-12-27T03:06:50.139Z,1027.25
2016-12-27T03:07:30.712Z,1027.29
2016-12-27T03:08:11.292Z,1027.3
2016-12-27T03:08:51.873Z,1027.28
2016-12-27T03:09:32.456Z,1027.34
2016-12-27T03:10:13.034Z,1027.29
2016-12-27T03:10:53.608Z,1027.27
2016-12-27T03:11:34.167Z,1027.32
2016-12-27T03:12:14.741Z,1027.34
2016-12-27T03:12:55.314Z,1027.34
2016-12-27T03:13:35.893Z,1027.39
2016-12-27T03:14:16.463Z,1027.41
2016-12-27T03:14:57.034Z,1027.45
2016-12-27T03:15:37.600Z,1027.44
2016-12-27T03:16:18.220Z,1027.5
2016-12-27T03:16:58.798Z,1027.49
2016-12-27T03:17:39.364Z,1027.52
2016-12-27T03:18:19.942Z,1027.51
2016-12-27T03:19:00.516Z,1027.54
2016-12-27T03:19:41.083Z,1027.51
2016-12-27T03:20:21.657Z,1027.56
2016-12-27T03:21:02.233Z,1027.62
2016-12-27T03:21:42.815Z,1027.62
2016-12-27T03:22:23.393Z,1027.67
2016-12-27T03:23:03.961Z,1027.65
2016-12-27T03:23:44.540Z,1027.64
2016-12-27T03:24:25.120Z,1027.65
2016-12-27T03:25:05.708Z,1027.67
2016-12-27T03:25:46.284Z,1027.67
2016-12-27T03:26:26.863Z,1027.66
2016-12-27T03:27:07.438Z,1027.75
2016-12-27T03:27:48.012Z,1027.77
2016-12-27T03:28:28.583Z,1027.78
2016-12-27T03:29:09.147Z,1027.76
2016-12-27T03:29:49.722Z,1027.75
2016-12-27T03:30:30.293Z,1027.67
2016-12-27T03:31:10.867Z,1027.72
2016-12-27T03:31:51.445Z,1027.7
2016-12-27T03:32:32.020Z,1027.72
2016-12-27T03:33:12.594Z,1027.7
2016-12-27T03:33:53.175Z,1027.7
2016-12-27T03:34:33.754Z,1027.69
2016-12-27T03:35:14.324Z,1027.7
2016-12-27T03:35:54.899Z,1027.71
2016-12-27T03:36:35.465Z,1027.73
2016-12-27T03:37:16.034Z,1027.73
2016-12-27T03:37:56.609Z,1027.74
2016-12-27T03:38:37.187Z,1027.64
2016-12-27T03:39:17.758Z,1027.65
2016-12-27T03:39:58.331Z,1027.57
2016-12-27T03:40:38.896Z,1027.51
2016-12-27T03:41:19.482Z,1027.56
2016-12-27T03:42:00.058Z,1027.6
2016-12-27T03:42:40.632Z,1027.68
2016-12-27T03:43:21.205Z,1027.73
2016-12-27T03:44:01.783Z,1027.72
2016-12-27T03:44:42.360Z,1027.83
2016-12-27T03:45:22.934Z,1027.85
2016-12-27T03:46:03.496Z,1027.88
2016-12-27T03:46:44.066Z,1027.9
2016-12-27T03:47:24.639Z,1027.88
2016-12-27T03:48:05.212Z,1027.86
2016-12-27T03:48:45.785Z,1027.91
2016-12-27T03:49:26.362Z,1027.9
2016-12-27T03:50:06.935Z,1027.89
2016-12-27T03:50:47.513Z,1027.95
2016-12-27T03:51:28.092Z,1027.93
2016-12-27T03:52:08.662Z,1027.93
2016-12-27T03:52:49.245Z,1027.92
2016-12-27T03:53:29.817Z,1027.97
2016-12-27T03:54:10.394Z,1027.96
2016-12-27T03:54:50.957Z,1027.98
2016-12-27T03:55:31.535Z,1028.01
2016-12-27T03:56:12.110Z,1027.99
2016-12-27T03:56:52.687Z,1027.99
2016-12-27T03:57:33.265Z,1027.99
2016-12-27T03:58:13.835Z,1028.08
2016-12-27T03:58:54.399Z,1028.1
2016-12-27T03:59:34.980Z,1028.06
2016-12-27T04:00:15.543Z,1028.14
2016-12-27T04:00:56.121Z,1028.1
2016-12-27T04:01:36.691Z,1028.11
2016-12-27T04:02:17.259Z,1028.14
2016-12-27T04:02:57.834Z,1028.13
2016-12-27T04:03:38.407Z,1028.12
2016-12-27T04:04:18.988Z,1028.09
2016-12-27T04:04:59.552Z,1028.06
2016-12-27T04:05:40.134Z,1028.11
2016-12-27T04:06:20.712Z,1028.07
2016-12-27T04:07:01.294Z,1028.13
2016-12-27T04:07:41.901Z,1028.12
2016-12-27T04:08:22.457Z,1028.13
2016-12-27T04:09:03.029Z,1028.1
2016-12-27T04:09:43.603Z,1028.19
2016-12-27T04:10:24.169Z,1028.19
2016-12-27T04:11:04.746Z,1028.2
2016-12-27T04:11:45.324Z,1028.16
2016-12-27T04:12:25.900Z,1028.16
2016-12-27T04:13:06.467Z,1028.2
2016-12-27T04:13:47.053Z,1028.18
2016-12-27T04:14:27.619Z,1028.23
2016-12-27T04:15:08.188Z,1028.21
2016-12-27T04:15:48.764Z,1028.25
2016-12-27T04:16:29.353Z,1028.29
2016-12-27T04:17:09.923Z,1028.32
2016-12-27T04:17:50.494Z,1028.29
2016-12-27T04:18:31.070Z,1028.34
2016-12-27T04:19:11.633Z,1028.35
2016-12-27T04:19:52.213Z,1028.38
2016-12-27T04:20:32.805Z,1028.37
2016-12-27T04:21:13.373Z,1028.37
2016-12-27T04:21:53.955Z,1028.36
2016-12-27T04:22:34.526Z,1028.35
2016-12-27T04:23:15.088Z,1028.33
2016-12-27T04:23:55.654Z,1028.3
2016-12-27T04:24:36.228Z,1028.28
2016-12-27T04:25:16.792Z,1028.27
2016-12-27T04:25:57.366Z,1028.27
2016-12-27T04:26:37.941Z,1028.27
2016-12-27T04:27:18.508Z,1028.28
2016-12-27T04:27:59.086Z,1028.28
2016-12-27T04:28:39.666Z,1028.29
2016-12-27T04:29:20.247Z,1028.23
2016-12-27T04:30:00.822Z,1028.22
2016-12-27T04:30:41.395Z,1028.23
2016-12-27T04:31:21.967Z,1028.21
2016-12-27T04:32:02.548Z,1028.25
2016-12-27T04:32:43.118Z,1028.26
2016-12-27T04:33:23.690Z,1028.29
2016-12-27T04:34:04.253Z,1028.38
2016-12-27T04:34:44.821Z,1028.39
2016-12-27T04:35:25.398Z,1028.34
2016-12-27T04:36:05.977Z,1028.38
2016-12-27T04:36:46.547Z,1028.33
2016-12-27T04:37:27.117Z,1028.35
2016-12-27T04:38:07.693Z,1028.38
2016-12-27T04:38:48.264Z,1028.39
2016-12-27T04:39:28.833Z,1028.35
2016-12-27T04:40:09.422Z,1028.33
2016-12-27T04:40:49.989Z,1028.37
2016-12-27T04:41:30.568Z,1028.41
2016-12-27T04:42:11.152Z,1028.47
2016-12-27T04:42:51.736Z,1028.43
2016-12-27T04:43:32.317Z,1028.37
2016-12-27T04:44:12.886Z,1028.36
2016-12-27T04:44:53.468Z,1028.38
2016-12-27T04:45:34.046Z,1028.47
2016-12-27T04:46:14.618Z,1028.53
2016-12-27T04:46:55.219Z,1028.63
2016-12-27T04:47:35.779Z,1028.63
2016-12-27T04:48:16.350Z,1028.63
2016-12-27T04:48:56.927Z,1028.63
2016-12-27T04:49:37.509Z,1028.61
2016-12-27T04:50:18.082Z,1028.6
2016-12-27T04:50:58.654Z,1028.6
2016-12-27T04:51:39.224Z,1028.62
2016-12-27T04:52:19.807Z,1028.71
2016-12-27T04:53:00.379Z,1028.68
2016-12-27T04:53:40.958Z,1028.69
2016-12-27T04:54:21.541Z,1028.62
2016-12-27T04:55:02.115Z,1028.64
2016-12-27T04:55:42.681Z,1028.64
2016-12-27T04:56:23.240Z,1028.65
2016-12-27T04:57:03.837Z,1028.7
2016-12-27T04:57:44.407Z,1028.68
2016-12-27T04:58:24.982Z,1028.74
2016-12-27T04:59:05.553Z,1028.67
2016-12-27T04:59:46.131Z,1028.75
2016-12-27T05:00:26.715Z,1028.67
2016-12-27T05:01:07.283Z,1028.68
2016-12-27T05:01:47.858Z,1028.69
2016-12-27T05:02:28.432Z,1028.73
2016-12-27T05:03:09.009Z,1028.75
2016-12-27T05:03:49.578Z,1028.76
2016-12-27T05:04:30.162Z,1028.79
2016-12-27T05:05:10.735Z,1028.79
2016-12-27T05:05:51.313Z,1028.79
2016-12-27T05:06:31.899Z,1028.74
2016-12-27T05:07:12.472Z,1028.69
2016-12-27T05:07:53.041Z,1028.73
2016-12-27T05:08:33.625Z,1028.74
2016-12-27T05:09:14.199Z,1028.75
2016-12-27T05:09:54.774Z,1028.75
2016-12-27T05:10:35.357Z,1028.79
2016-12-27T05:11:15.930Z,1028.8
2016-12-27T05:11:56.505Z,1028.83
2016-12-27T05:12:37.083Z,1028.88
2016-12-27T05:13:17.661Z,1028.84
2016-12-27T05:13:58.234Z,1028.83
2016-12-27T05:14:38.810Z,1028.8
2016-12-27T05:15:19.388Z,1028.84
2016-12-27T05:15:59.956Z,1028.82
2016-12-27T05:16:40.522Z,1028.86
2016-12-27T05:17:21.106Z,1028.84
2016-12-27T05:18:01.673Z,1028.82
2016-12-27T05:18:42.249Z,1028.81
2016-12-27T05:19:22.832Z,1028.78
2016-12-27T05:20:03.396Z,1028.79
2016-12-27T05:20:43.971Z,1028.75
2016-12-27T05:21:24.546Z,1028.75
2016-12-27T05:22:05.119Z,1028.77
2016-12-27T05:22:45.695Z,1028.79
2016-12-27T05:23:26.272Z,1028.71
2016-12-27T05:24:06.835Z,1028.78
2016-12-27T05:24:47.412Z,1028.75
2016-12-27T05:25:28.000Z,1028.83
2016-12-27T05:26:08.572Z,1028.93
2016-12-27T05:26:49.152Z,1028.9
2016-12-27T05:27:29.725Z,1028.91
2016-12-27T05:28:10.304Z,1028.97
2016-12-27T05:28:50.873Z,1028.98
2016-12-27T05:29:31.447Z,1029.03
2016-12-27T05:30:12.017Z,1029.09
2016-12-27T05:30:52.594Z,1029.07
2016-12-27T05:31:33.162Z,1029.05
2016-12-27T05:32:13.738Z,1029.08
2016-12-27T05:32:54.310Z,1029.05
2016-12-27T05:33:34.891Z,1029.08
2016-12-27T05:34:15.461Z,1029.08
2016-12-27T05:34:56.041Z,1029.07
2016-12-27T05:35:36.608Z,1029.09
2016-12-27T05:36:17.189Z,1029.09
2016-12-27T05:36:57.762Z,1029.09
2016-12-27T05:37:38.367Z,1029.09
2016-12-27T05:38:18.952Z,1029.1
2016-12-27T05:38:59.534Z,1029.07
2016-12-27T05:39:40.098Z,1029.1
2016-12-27T05:40:20.671Z,1029.12
2016-12-27T05:41:01.251Z,1029.16
2016-12-27T05:41:41.828Z,1029.16
2016-12-27T05:42:22.402Z,1029.11
2016-12-27T05:43:02.975Z,1029.13
2016-12-27T05:43:43.549Z,1029.11
2016-12-27T05:44:24.122Z,1029.09
2016-12-27T05:45:04.698Z,1029.1
2016-12-27T05:45:45.271Z,1029.13
2016-12-27T05:46:25.854Z,1029.14
2016-12-27T05:47:06.421Z,1029.11
2016-12-27T05:47:46.994Z,1029.08
2016-12-27T05:48:27.566Z,1029.13
2016-12-27T05:49:08.140Z,1029.17
2016-12-27T05:49:48.708Z,1029.15
2016-12-27T05:50:29.281Z,1029.17
2016-12-27T05:51:09.857Z,1029.13
2016-12-27T05:51:50.420Z,1029.17
2016-12-27T05:52:30.995Z,1029.18
2016-12-27T05:53:11.571Z,1029.16
2016-12-27T05:53:52.142Z,1029.14
2016-12-27T05:54:32.716Z,1029.21
2016-12-27T05:55:13.291Z,1029.23
2016-12-27T05:55:53.868Z,1029.23
2016-12-27T05:56:34.451Z,1029.24
2016-12-27T05:57:15.028Z,1029.29
2016-12-27T05:57:55.599Z,1029.29
2016-12-27T05:58:36.183Z,1029.29
2016-12-27T05:59:16.745Z,1029.28
2016-12-27T05:59:57.335Z,1029.25
2016-12-27T06:00:37.886Z,1029.28
2016-12-27T06:01:18.464Z,1029.27
2016-12-27T06:01:59.038Z,1029.28
2016-12-27T06:02:39.619Z,1029.3
2016-12-27T06:03:20.209Z,1029.34
2016-12-27T06:04:00.777Z,1029.36
2016-12-27T06:04:41.352Z,1029.36
2016-12-27T06:05:21.930Z,1029.35
2016-12-27T06:06:02.505Z,1029.39
2016-12-27T06:06:43.081Z,1029.34
2016-12-27T06:07:23.656Z,1029.36
2016-12-27T06:08:04.240Z,1029.39
2016-12-27T06:08:44.811Z,1029.39
2016-12-27T06:09:25.386Z,1029.42
2016-12-27T06:10:05.965Z,1029.42
2016-12-27T06:10:46.541Z,1029.41
2016-12-27T06:11:27.114Z,1029.49
2016-12-27T06:12:07.678Z,1029.51
2016-12-27T06:12:48.256Z,1029.51
2016-12-27T06:13:28.827Z,1029.57
2016-12-27T06:14:09.419Z,1029.54
2016-12-27T06:14:49.980Z,1029.56
2016-12-27T06:15:30.550Z,1029.62
2016-12-27T06:16:11.131Z,1029.62
2016-12-27T06:16:51.708Z,1029.66
2016-12-27T06:17:32.275Z,1029.71
2016-12-27T06:18:12.850Z,1029.7
2016-12-27T06:18:53.427Z,1029.71
2016-12-27T06:19:34.007Z,1029.74
2016-12-27T06:20:14.567Z,1029.75
2016-12-27T06:20:55.143Z,1029.74
2016-12-27T06:21:35.730Z,1029.74
2016-12-27T06:22:16.308Z,1029.76
2016-12-27T06:22:56.883Z,1029.76
2016-12-27T06:23:37.452Z,1029.81
2016-12-27T06:24:18.047Z,1029.81
2016-12-27T06:24:58.594Z,1029.77
2016-12-27T06:25:39.178Z,1029.75
2016-12-27T06:26:19.754Z,1029.74
2016-12-27T06:27:00.332Z,1029.72
2016-12-27T06:27:40.889Z,1029.8
2016-12-27T06:28:21.483Z,1029.87
2016-12-27T06:29:02.074Z,1029.9
2016-12-27T06:29:42.655Z,1029.91
2016-12-27T06:30:23.235Z,1029.89
2016-12-27T06:31:03.802Z,1029.96
2016-12-27T06:31:44.375Z,1029.95
2016-12-27T06:32:24.946Z,1029.95
2016-12-27T06:33:05.523Z,1029.99
2016-12-27T06:33:46.088Z,1030
2016-12-27T06:34:26.655Z,1030.04
2016-12-27T06:35:07.212Z,1030.06
2016-12-27T06:35:47.850Z,1030.04
2016-12-27T06:36:28.415Z,1030.11
2016-12-27T06:37:09.000Z,1030.03
2016-12-27T06:37:49.571Z,1030.05
2016-12-27T06:38:30.138Z,1030.09
2016-12-27T06:39:10.721Z,1030.08
2016-12-27T06:39:51.303Z,1030.09
2016-12-27T06:40:31.878Z,1030.12
2016-12-27T06:41:12.438Z,1030.12
2016-12-27T06:41:53.015Z,1030.17
2016-12-27T06:42:33.591Z,1030.22
2016-12-27T06:43:14.171Z,1030.2
2016-12-27T06:43:54.754Z,1030.25
2016-12-27T06:44:35.327Z,1030.23
2016-12-27T06:45:15.886Z,1030.19
2016-12-27T06:45:56.468Z,1030.2
2016-12-27T06:46:37.046Z,1030.14
2016-12-27T06:47:17.637Z,1030.13
2016-12-27T06:47:58.206Z,1030.04
2016-12-27T06:48:38.786Z,1030.07
2016-12-27T06:49:19.360Z,1030.04
2016-12-27T06:49:59.921Z,1030.03
2016-12-27T06:50:40.501Z,1030.02
2016-12-27T06:51:21.077Z,1030.02
2016-12-27T06:52:01.644Z,1030.02
2016-12-27T06:52:42.217Z,1030.04
2016-12-27T06:53:22.793Z,1030
2016-12-27T06:54:03.358Z,1030.05
2016-12-27T06:54:43.941Z,1030.04
2016-12-27T06:55:24.515Z,1030.04
2016-12-27T06:56:05.078Z,1030.07
2016-12-27T06:56:45.651Z,1030.11
2016-12-27T06:57:26.234Z,1030.12
2016-12-27T06:58:06.810Z,1030.14
2016-12-27T06:58:47.382Z,1030.15
2016-12-27T06:59:27.960Z,1030.15
2016-12-27T07:00:08.538Z,1030.16
2016-12-27T07:00:49.115Z,1030.23
2016-12-27T07:01:29.687Z,1030.2
2016-12-27T07:02:10.273Z,1030.26
2016-12-27T07:02:50.853Z,1030.19
2016-12-27T07:03:31.419Z,1030.24
2016-12-27T07:04:11.995Z,1030.26
2016-12-27T07:04:52.579Z,1030.26
2016-12-27T07:05:33.147Z,1030.33
2016-12-27T07:06:13.741Z,1030.29
2016-12-27T07:06:54.314Z,1030.28
2016-12-27T07:07:34.873Z,1030.28
2016-12-27T07:08:15.449Z,1030.26
2016-12-27T07:08:56.020Z,1030.27
2016-12-27T07:09:36.589Z,1030.25
2016-12-27T07:10:17.161Z,1030.25
2016-12-27T07:10:57.734Z,1030.25
2016-12-27T07:11:38.310Z,1030.27
2016-12-27T07:12:18.888Z,1030.25
2016-12-27T07:12:59.459Z,1030.26
2016-12-27T07:13:40.041Z,1030.25
2016-12-27T07:14:20.625Z,1030.25
2016-12-27T07:15:01.202Z,1030.27
2016-12-27T07:15:41.768Z,1030.23
2016-12-27T07:16:22.336Z,1030.28
2016-12-27T07:17:02.922Z,1030.21
2016-12-27T07:17:43.483Z,1030.22
2016-12-27T07:18:24.044Z,1030.2
2016-12-27T07:19:04.624Z,1030.25
2016-12-27T07:19:45.202Z,1030.24
2016-12-27T07:20:25.778Z,1030.26
2016-12-27T07:21:06.342Z,1030.27
2016-12-27T07:21:46.922Z,1030.27
2016-12-27T07:22:27.486Z,1030.26
2016-12-27T07:23:08.059Z,1030.33
2016-12-27T07:23:48.635Z,1030.3
2016-12-27T07:24:29.210Z,1030.35
2016-12-27T07:25:09.769Z,1030.35
2016-12-27T07:25:50.335Z,1030.37
2016-12-27T07:26:30.909Z,1030.34
2016-12-27T07:27:11.506Z,1030.34
2016-12-27T07:27:52.077Z,1030.36
2016-12-27T07:28:32.657Z,1030.35
2016-12-27T07:29:13.223Z,1030.35
2016-12-27T07:29:53.798Z,1030.4
2016-12-27T07:30:34.374Z,1030.41
2016-12-27T07:31:14.945Z,1030.43
2016-12-27T07:31:55.501Z,1030.44
2016-12-27T07:32:36.085Z,1030.45
2016-12-27T07:33:16.662Z,1030.43
2016-12-27T07:33:57.235Z,1030.39
2016-12-27T07:34:37.814Z,1030.39
2016-12-27T07:35:18.386Z,1030.39
2016-12-27T07:35:58.981Z,1030.45
2016-12-27T07:36:39.553Z,1030.44
2016-12-27T07:37:20.119Z,1030.47
2016-12-27T07:38:00.692Z,1030.48
2016-12-27T07:38:41.268Z,1030.57
2016-12-27T07:39:21.840Z,1030.57
2016-12-27T07:40:02.416Z,1030.56
2016-12-27T07:40:42.990Z,1030.63
2016-12-27T07:41:23.564Z,1030.63
2016-12-27T07:42:04.137Z,1030.69
2016-12-27T07:42:44.700Z,1030.68
2016-12-27T07:43:25.281Z,1030.7
2016-12-27T07:44:05.857Z,1030.66
2016-12-27T07:44:46.426Z,1030.71
2016-12-27T07:45:27.002Z,1030.72
2016-12-27T07:46:07.569Z,1030.7
2016-12-27T07:46:48.147Z,1030.74
2016-12-27T07:47:28.725Z,1030.76
2016-12-27T07:48:09.285Z,1030.8
2016-12-27T07:48:49.869Z,1030.83
2016-12-27T07:49:30.444Z,1030.81
2016-12-27T07:50:11.036Z,1030.8
2016-12-27T07:50:51.611Z,1030.8
2016-12-27T07:51:32.174Z,1030.84
2016-12-27T07:52:12.756Z,1030.79
2016-12-27T07:52:53.337Z,1030.81
2016-12-27T07:53:33.916Z,1030.81
2016-12-27T07:54:14.505Z,1030.79
2016-12-27T07:54:55.064Z,1030.81
2016-12-27T07:55:35.642Z,1030.86
2016-12-27T07:56:16.208Z,1030.86
2016-12-27T07:56:56.767Z,1030.85
2016-12-27T07:57:37.347Z,1030.88
2016-12-27T07:58:17.922Z,1030.91
2016-12-27T07:58:58.497Z,1030.93
2016-12-27T07:59:39.077Z,1030.92
2016-12-27T08:00:19.632Z,1030.95
2016-12-27T08:01:00.204Z,1030.99
2016-12-27T08:01:40.774Z,1030.97
2016-12-27T08:02:21.355Z,1031.01
2016-12-27T08:03:01.923Z,1031.04
2016-12-27T08:03:42.487Z,1031.05
2016-12-27T08:04:23.059Z,1031.02
2016-12-27T08:05:03.652Z,1031.05
2016-12-27T08:05:44.219Z,1031.02
2016-12-27T08:06:24.789Z,1031.07
2016-12-27T08:07:05.348Z,1031.05
2016-12-27T08:07:45.930Z,1031.07
2016-12-27T08:08:26.501Z,1031.05
2016-12-27T08:09:07.074Z,1031.04
2016-12-27T08:09:47.637Z,1031.09
2016-12-27T08:10:28.200Z,1031.08
2016-12-27T08:11:08.777Z,1031.15
2016-12-27T08:11:49.353Z,1031.14
2016-12-27T08:12:29.931Z,1031.22